Terminal Aerodrome Forecast
Issued by NWS

Home | Current Version | Previous Version | Text Only | Print | Product List | Glossary On
Versions: 1 2 3 4 5 6 7 8 9 10 11 12 13 14 15 16 17 18 19 20 21 22 23 24 25 26 27 28 29 30 31 32 33 34 35 36 37 38 39 40 41 42 43 44 45 46 47 48 49 50
000
FTUS41 KCTP 291120
TAFBFD
TAF
KBFD 291120Z 2912/3012 01008KT P6SM OVC020
     FM291500 35010KT P6SM BKN030
     FM291800 34008KT P6SM SCT040
     FM300000 05005KT P6SM OVC150
     FM300900 10005KT P6SM OVC100=

USA.gov is the U.S. government's official web portal to all federal, state and local government web resources and services.